createdAt,value
2017-06-29T00:00:10.697Z,98675
2017-06-29T00:02:38.003Z,98677
2017-06-29T00:05:05.605Z,98670
2017-06-29T00:07:32.886Z,98665
2017-06-29T00:10:00.196Z,98666
2017-06-29T00:12:27.494Z,98670
2017-06-29T00:14:54.770Z,98668
2017-06-29T00:17:22.050Z,98672
2017-06-29T00:19:49.431Z,98661
2017-06-29T00:22:16.743Z,98663
2017-06-29T00:24:46.414Z,98659
2017-06-29T00:27:13.726Z,98657
2017-06-29T00:29:41.172Z,98657
2017-06-29T00:32:08.476Z,98667
2017-06-29T00:34:36.087Z,98666
2017-06-29T00:37:03.544Z,98660
2017-06-29T00:39:30.845Z,98658
2017-06-29T00:41:58.137Z,98660
2017-06-29T00:44:25.540Z,98658
2017-06-29T00:46:52.841Z,98655
2017-06-29T00:49:20.522Z,98654
2017-06-29T00:51:47.961Z,98656
2017-06-29T00:54:15.261Z,98666
2017-06-29T00:56:42.561Z,98670
2017-06-29T00:59:09.858Z,98664
2017-06-29T01:01:37.161Z,98667
2017-06-29T01:04:04.862Z,98668
2017-06-29T01:06:32.161Z,98666
2017-06-29T01:08:59.481Z,98661
2017-06-29T01:11:27.021Z,98661
2017-06-29T01:13:54.412Z,98672
2017-06-29T01:16:21.716Z,98661
2017-06-29T01:18:49.323Z,98669
2017-06-29T01:21:16.846Z,98656
2017-06-29T01:23:44.229Z,98656
2017-06-29T01:26:11.765Z,98659
2017-06-29T01:28:39.074Z,98660
2017-06-29T01:31:06.611Z,98663
2017-06-29T01:33:33.914Z,98656
2017-06-29T01:36:01.523Z,98652
2017-06-29T01:38:28.821Z,98653
2017-06-29T01:40:56.200Z,98664
2017-06-29T01:43:23.515Z,98661
2017-06-29T01:45:51.100Z,98663
2017-06-29T01:48:18.390Z,98654
2017-06-29T01:50:45.693Z,98660
2017-06-29T01:53:13.485Z,98654
2017-06-29T01:55:40.774Z,98663
2017-06-29T01:58:08.054Z,98655
2017-06-29T02:00:35.775Z,98650
2017-06-29T02:03:03.243Z,98647
2017-06-29T02:05:30.544Z,98652
2017-06-29T02:07:58.153Z,98647
2017-06-29T02:10:25.615Z,98651
2017-06-29T02:12:53.142Z,98653
2017-06-29T02:15:20.521Z,98655
2017-06-29T02:17:47.813Z,98654
2017-06-29T02:20:15.103Z,98654
2017-06-29T02:22:42.401Z,98652
2017-06-29T02:25:09.696Z,98661
2017-06-29T02:27:36.989Z,98657
2017-06-29T02:30:04.292Z,98647
2017-06-29T02:32:31.576Z,98664
2017-06-29T02:34:58.872Z,98653
2017-06-29T02:37:26.180Z,98658
2017-06-29T02:39:53.556Z,98664
2017-06-29T02:42:21.087Z,98665
2017-06-29T02:44:48.381Z,98668
2017-06-29T02:47:15.683Z,98668
2017-06-29T02:49:43.087Z,98666
2017-06-29T02:52:10.609Z,98668
2017-06-29T02:54:37.913Z,98663
2017-06-29T02:57:05.459Z,98661
2017-06-29T02:59:32.777Z,98661
2017-06-29T03:02:00.076Z,98656
2017-06-29T03:04:27.589Z,98662
2017-06-29T03:06:54.879Z,98658
2017-06-29T03:09:22.177Z,98660
2017-06-29T03:11:49.586Z,98660
2017-06-29T03:14:16.907Z,98655
2017-06-29T03:16:44.261Z,98657
2017-06-29T03:19:11.556Z,98659
2017-06-29T03:21:38.842Z,98658
2017-06-29T03:24:06.514Z,98669
2017-06-29T03:26:33.808Z,98670
2017-06-29T03:29:01.109Z,98677
2017-06-29T03:31:28.410Z,98673
2017-06-29T03:33:55.780Z,98671
2017-06-29T03:36:23.076Z,98670
2017-06-29T03:38:50.377Z,98677
2017-06-29T03:41:17.911Z,98672
2017-06-29T03:43:45.299Z,98672
2017-06-29T03:46:12.578Z,98669
2017-06-29T03:48:39.975Z,98678
2017-06-29T03:51:07.281Z,98677
2017-06-29T03:53:34.890Z,98679
2017-06-29T03:56:02.273Z,98677
2017-06-29T03:58:29.568Z,98674
2017-06-29T04:00:56.865Z,98674
2017-06-29T04:03:24.147Z,98673
2017-06-29T04:05:51.429Z,98679
2017-06-29T04:08:19.017Z,98681
2017-06-29T04:10:46.325Z,98672
2017-06-29T04:13:13.621Z,98685
2017-06-29T04:15:41.078Z,98684
2017-06-29T04:18:08.472Z,98683
2017-06-29T04:20:35.928Z,98679
2017-06-29T04:23:03.451Z,98676
2017-06-29T04:25:30.738Z,98678
2017-06-29T04:27:58.044Z,98686
2017-06-29T04:30:25.341Z,98677
2017-06-29T04:32:52.641Z,98677
2017-06-29T04:35:20.357Z,98686
2017-06-29T04:37:47.652Z,98683
2017-06-29T04:40:15.345Z,98691
2017-06-29T04:42:42.736Z,98693
2017-06-29T04:45:10.054Z,98696
2017-06-29T04:47:37.353Z,98698
2017-06-29T04:50:04.771Z,98704
2017-06-29T04:52:32.054Z,98706
2017-06-29T04:54:59.406Z,98702
2017-06-29T04:57:26.708Z,98709
2017-06-29T04:59:54.080Z,98708
2017-06-29T05:02:21.472Z,98710
2017-06-29T05:04:48.910Z,98707
2017-06-29T05:07:16.194Z,98711
2017-06-29T05:09:43.482Z,98703
2017-06-29T05:12:10.982Z,98710
2017-06-29T05:14:38.276Z,98703
2017-06-29T05:17:05.581Z,98700
2017-06-29T05:19:33.055Z,98715
2017-06-29T05:22:00.353Z,98709
2017-06-29T05:24:27.657Z,98709
2017-06-29T05:26:54.941Z,98719
2017-06-29T05:29:22.336Z,98713
2017-06-29T05:31:49.720Z,98715
2017-06-29T05:34:17.036Z,98717
2017-06-29T05:36:44.325Z,98723
2017-06-29T05:39:11.621Z,98726
2017-06-29T05:41:38.912Z,98726
2017-06-29T05:44:06.400Z,98731
2017-06-29T05:46:33.698Z,98728
2017-06-29T05:49:01.382Z,98721
2017-06-29T05:51:28.690Z,98715
2017-06-29T05:53:55.990Z,98724
2017-06-29T05:56:23.369Z,98718
2017-06-29T05:58:50.665Z,98724
2017-06-29T06:01:18.050Z,98730
2017-06-29T06:03:45.509Z,98728
2017-06-29T06:06:12.835Z,98726
2017-06-29T06:08:40.119Z,98725
2017-06-29T06:11:07.577Z,98735
2017-06-29T06:13:34.884Z,98730
2017-06-29T06:16:02.415Z,98745
2017-06-29T06:18:29.716Z,98736
2017-06-29T06:20:57.012Z,98742
2017-06-29T06:23:24.306Z,98738
2017-06-29T06:25:51.604Z,98741
2017-06-29T06:28:19.160Z,98737
2017-06-29T06:30:46.447Z,98734
2017-06-29T06:33:13.745Z,98743
2017-06-29T06:35:41.058Z,98740
2017-06-29T06:38:08.563Z,98736
2017-06-29T06:40:35.850Z,98735
2017-06-29T06:43:03.223Z,98740
2017-06-29T06:45:30.665Z,98746
2017-06-29T06:47:57.962Z,98751
2017-06-29T06:50:25.658Z,98756
2017-06-29T06:52:52.962Z,98755
2017-06-29T06:55:20.503Z,98756
2017-06-29T06:57:47.783Z,98750
2017-06-29T07:00:15.179Z,98757
2017-06-29T07:02:42.480Z,98755
2017-06-29T07:05:10.017Z,98754
2017-06-29T07:07:37.329Z,98755
2017-06-29T07:10:04.615Z,98758
2017-06-29T07:12:31.922Z,98756
2017-06-29T07:14:59.307Z,98753
2017-06-29T07:17:26.765Z,98752
2017-06-29T07:19:54.150Z,98753
2017-06-29T07:22:21.449Z,98752
2017-06-29T07:24:48.741Z,98759
2017-06-29T07:27:16.026Z,98753
2017-06-29T07:29:43.321Z,98748
2017-06-29T07:32:10.621Z,98758
2017-06-29T07:34:38.041Z,98758
2017-06-29T07:37:05.324Z,98766
2017-06-29T07:39:32.603Z,98753
2017-06-29T07:41:59.920Z,98767
2017-06-29T07:44:27.217Z,98764
2017-06-29T07:46:54.898Z,98768
2017-06-29T07:49:22.197Z,98771
2017-06-29T07:51:49.492Z,98787
2017-06-29T07:54:16.813Z,98782
2017-06-29T07:56:44.109Z,98780
2017-06-29T07:59:11.692Z,98785
2017-06-29T08:01:38.993Z,98782
2017-06-29T08:04:06.293Z,98786
2017-06-29T08:06:33.582Z,98795
2017-06-29T08:09:00.891Z,98795
2017-06-29T08:11:28.192Z,98799
2017-06-29T08:13:55.321Z,98799
2017-06-29T08:16:22.616Z,98795
2017-06-29T08:18:50.638Z,98799
2017-06-29T08:21:18.122Z,98809
2017-06-29T08:23:45.403Z,98802
2017-06-29T08:26:12.732Z,98803
2017-06-29T08:28:39.896Z,98803
2017-06-29T08:31:07.182Z,98807
2017-06-29T08:33:34.495Z,98805
2017-06-29T08:36:01.798Z,98804
2017-06-29T08:38:29.079Z,98811
2017-06-29T08:40:56.551Z,98809
2017-06-29T08:43:23.855Z,98810
2017-06-29T08:45:51.153Z,98809
2017-06-29T08:48:18.433Z,98811
2017-06-29T08:50:45.715Z,98810
2017-06-29T08:53:13.012Z,98813
2017-06-29T08:55:40.294Z,98815
2017-06-29T08:58:07.592Z,98813
2017-06-29T09:00:34.897Z,98822
2017-06-29T09:03:02.194Z,98814
2017-06-29T09:05:29.488Z,98825
2017-06-29T09:07:56.785Z,98822
2017-06-29T09:10:24.194Z,98820
2017-06-29T09:12:51.643Z,98823
2017-06-29T09:15:18.941Z,98822
2017-06-29T09:17:46.227Z,98826
2017-06-29T09:20:13.783Z,98828
2017-06-29T09:22:41.169Z,98827
2017-06-29T09:25:08.702Z,98831
2017-06-29T09:27:36.130Z,98831
2017-06-29T09:30:03.421Z,98834
2017-06-29T09:32:30.711Z,98846
2017-06-29T09:34:58.157Z,98840
2017-06-29T09:37:25.442Z,98841
2017-06-29T09:39:53.134Z,98848
2017-06-29T09:42:20.441Z,98849
2017-06-29T09:44:47.919Z,98849
2017-06-29T09:47:15.429Z,98855
2017-06-29T09:49:42.711Z,98849
2017-06-29T09:52:09.989Z,98847
2017-06-29T09:54:37.270Z,98848
2017-06-29T09:57:04.565Z,98847
2017-06-29T09:59:32.106Z,98846
2017-06-29T10:01:59.405Z,98848
2017-06-29T10:04:26.705Z,98845
2017-06-29T10:06:54.023Z,98844
2017-06-29T10:09:21.325Z,98853
2017-06-29T10:11:48.621Z,98852
2017-06-29T10:14:16.235Z,98856
2017-06-29T10:16:43.532Z,98858
2017-06-29T10:19:10.820Z,98864
2017-06-29T10:21:38.299Z,98868
2017-06-29T10:24:05.579Z,98873
2017-06-29T10:26:32.865Z,98874
2017-06-29T10:29:00.161Z,98871
2017-06-29T10:31:27.460Z,98878
2017-06-29T10:33:54.971Z,98878
2017-06-29T10:36:22.419Z,98874
2017-06-29T10:38:49.717Z,98872
2017-06-29T10:41:16.852Z,98883
2017-06-29T10:43:44.148Z,98881
2017-06-29T10:46:15.624Z,98884
2017-06-29T10:48:42.933Z,98882
2017-06-29T10:51:10.215Z,98886
2017-06-29T10:53:37.505Z,98884
2017-06-29T10:56:05.067Z,98876
2017-06-29T10:58:32.370Z,98874
2017-06-29T11:00:59.751Z,98880
2017-06-29T11:03:27.049Z,98880
2017-06-29T11:05:54.343Z,98885
2017-06-29T11:08:21.637Z,98885
2017-06-29T11:10:48.914Z,98878
2017-06-29T11:13:16.422Z,98881
2017-06-29T11:15:43.879Z,98889
2017-06-29T11:18:11.162Z,98883
2017-06-29T11:20:38.442Z,98892
2017-06-29T11:23:05.739Z,98896
2017-06-29T11:25:33.036Z,98895
2017-06-29T11:28:00.323Z,98898
2017-06-29T11:30:27.604Z,98899
2017-06-29T11:32:55.138Z,98904
2017-06-29T11:35:22.564Z,98902
2017-06-29T11:37:49.858Z,98900
2017-06-29T11:40:17.153Z,98906
2017-06-29T11:42:44.647Z,98907
2017-06-29T11:45:12.325Z,98900
2017-06-29T11:47:39.613Z,98905
2017-06-29T11:50:06.903Z,98904
2017-06-29T11:52:34.191Z,98912
2017-06-29T11:55:01.590Z,98914
2017-06-29T11:57:28.879Z,98919
2017-06-29T11:59:56.186Z,98918
2017-06-29T12:02:23.458Z,98915
2017-06-29T12:04:50.744Z,98924
2017-06-29T12:07:18.044Z,98906
2017-06-29T12:09:45.479Z,98919
2017-06-29T12:12:12.773Z,98925
2017-06-29T12:14:40.070Z,98922
2017-06-29T12:17:07.358Z,98918
2017-06-29T12:19:34.657Z,98922
2017-06-29T12:22:02.387Z,98928
2017-06-29T12:24:29.680Z,98929
2017-06-29T12:26:57.303Z,98931
2017-06-29T12:29:24.574Z,98930
2017-06-29T12:31:51.858Z,98929
2017-06-29T12:34:19.366Z,98944
2017-06-29T12:36:46.650Z,98937
2017-06-29T12:39:13.974Z,98931
2017-06-29T12:41:41.422Z,98938
2017-06-29T12:44:08.948Z,98936
2017-06-29T12:46:36.248Z,98934
2017-06-29T12:49:03.518Z,98936
2017-06-29T12:51:30.810Z,98934
2017-06-29T12:53:58.480Z,98932
2017-06-29T12:56:25.777Z,98939
2017-06-29T12:58:53.060Z,98933
2017-06-29T13:01:20.852Z,98942
2017-06-29T13:03:48.130Z,98943
2017-06-29T13:06:15.414Z,98940
2017-06-29T13:08:42.722Z,98947
2017-06-29T13:11:10.006Z,98944
2017-06-29T13:13:37.289Z,98943
2017-06-29T13:16:04.596Z,98951
2017-06-29T13:18:31.891Z,98943
2017-06-29T13:20:59.212Z,98943
2017-06-29T13:23:26.492Z,98947
2017-06-29T13:25:53.776Z,98947
2017-06-29T13:28:21.100Z,98952
2017-06-29T13:30:49.107Z,98955
2017-06-29T13:33:16.414Z,98953
2017-06-29T13:35:43.709Z,98956
2017-06-29T13:38:11.004Z,98963
2017-06-29T13:40:38.292Z,98955
2017-06-29T13:43:05.988Z,98960
2017-06-29T13:45:33.286Z,98960
2017-06-29T13:48:00.580Z,98961
2017-06-29T13:50:27.870Z,98965
2017-06-29T13:52:55.160Z,98967
2017-06-29T13:55:22.758Z,98968
2017-06-29T13:57:50.147Z,98964
2017-06-29T14:00:17.440Z,98961
2017-06-29T14:02:44.823Z,98956
2017-06-29T14:05:12.106Z,98957
2017-06-29T14:07:39.667Z,98966
2017-06-29T14:10:06.947Z,98962
2017-06-29T14:12:34.235Z,98968
2017-06-29T14:15:01.725Z,98964
2017-06-29T14:17:29.017Z,98963
2017-06-29T14:19:56.322Z,98963
2017-06-29T14:22:23.616Z,98962
2017-06-29T14:24:50.947Z,98964
2017-06-29T14:27:18.402Z,98965
2017-06-29T14:29:45.859Z,98970
2017-06-29T14:32:13.152Z,98960
2017-06-29T14:34:40.271Z,98961
2017-06-29T14:37:07.684Z,98959
2017-06-29T14:39:35.074Z,98968
2017-06-29T14:42:02.376Z,98969
2017-06-29T14:44:29.986Z,98962
2017-06-29T14:46:57.515Z,98963
2017-06-29T14:49:24.837Z,98964
2017-06-29T14:51:52.121Z,98962
2017-06-29T14:54:19.409Z,98959
2017-06-29T14:56:46.701Z,98949
2017-06-29T14:59:14.724Z,98950
2017-06-29T15:01:42.035Z,98948
2017-06-29T15:04:09.327Z,98954
2017-06-29T15:06:36.603Z,98954
2017-06-29T15:09:04.404Z,98952
2017-06-29T15:11:32.067Z,98956
2017-06-29T15:13:59.511Z,98956
2017-06-29T15:16:27.195Z,98959
2017-06-29T15:18:54.691Z,98953
2017-06-29T15:21:21.984Z,98958
2017-06-29T15:23:49.290Z,98953
2017-06-29T15:26:16.749Z,98962
2017-06-29T15:28:44.282Z,98952
2017-06-29T15:31:11.570Z,98954
2017-06-29T15:33:39.029Z,98958
2017-06-29T15:36:06.585Z,98963
2017-06-29T15:41:13.395Z,98962
2017-06-29T15:43:40.671Z,98967
2017-06-29T15:46:08.091Z,98964
2017-06-29T15:48:35.365Z,98967
2017-06-29T15:51:02.640Z,98960
2017-06-29T15:53:29.936Z,98957
2017-06-29T15:55:57.318Z,98956
2017-06-29T15:58:24.775Z,98949
2017-06-29T16:00:52.061Z,98957
2017-06-29T16:03:19.360Z,98962
2017-06-29T16:05:46.652Z,98962
2017-06-29T16:08:13.929Z,98958
2017-06-29T16:10:41.374Z,98963
2017-06-29T16:13:08.834Z,98960
2017-06-29T16:15:36.105Z,98961
2017-06-29T16:18:03.386Z,98961
2017-06-29T16:20:30.689Z,98957
2017-06-29T16:22:57.978Z,98951
2017-06-29T16:25:25.267Z,98955
2017-06-29T16:27:52.577Z,98952
2017-06-29T16:30:20.552Z,98953
2017-06-29T16:32:47.869Z,98965
2017-06-29T16:35:15.097Z,98961
2017-06-29T16:37:42.402Z,98957
2017-06-29T16:40:09.734Z,98958
2017-06-29T16:42:37.020Z,98956
2017-06-29T16:45:04.491Z,98959
2017-06-29T16:47:31.770Z,98962
2017-06-29T16:49:59.224Z,98968
2017-06-29T16:52:26.516Z,98969
2017-06-29T16:54:53.793Z,98979
2017-06-29T16:57:21.470Z,98975
2017-06-29T16:59:48.761Z,98977
2017-06-29T17:02:16.203Z,98986
2017-06-29T17:04:43.505Z,98983
2017-06-29T17:07:10.807Z,98985
2017-06-29T17:09:38.105Z,98996
2017-06-29T17:12:05.397Z,98997
2017-06-29T17:14:32.692Z,98998
2017-06-29T17:16:59.988Z,98999
2017-06-29T17:19:27.667Z,99005
2017-06-29T17:21:54.976Z,99002
2017-06-29T17:24:22.257Z,99002
2017-06-29T17:26:49.548Z,99008
2017-06-29T17:29:16.818Z,99008
2017-06-29T17:31:44.153Z,99010
2017-06-29T17:34:11.594Z,99011
2017-06-29T17:36:38.879Z,99010
2017-06-29T17:39:06.158Z,99010
2017-06-29T17:41:33.467Z,99010
2017-06-29T17:44:00.772Z,99016
2017-06-29T17:46:28.065Z,99011
2017-06-29T17:48:55.355Z,99015
2017-06-29T17:51:24.157Z,99017
2017-06-29T17:53:51.484Z,99015
2017-06-29T17:56:18.763Z,99013
2017-06-29T17:58:46.053Z,99017
2017-06-29T18:01:13.555Z,99017
2017-06-29T18:03:40.838Z,99021
2017-06-29T18:06:08.184Z,99015
2017-06-29T18:08:35.484Z,99014
2017-06-29T18:11:02.758Z,99016
2017-06-29T18:13:30.056Z,99025
2017-06-29T18:15:57.690Z,99029
2017-06-29T18:18:24.959Z,99025
2017-06-29T18:20:52.375Z,99030
2017-06-29T18:23:19.663Z,99032
2017-06-29T18:25:46.981Z,99032
2017-06-29T18:28:14.278Z,99034
2017-06-29T18:30:41.892Z,99039
2017-06-29T18:33:09.181Z,99040
2017-06-29T18:35:36.468Z,99042
2017-06-29T18:38:04.146Z,99050
2017-06-29T18:40:31.571Z,99047
2017-06-29T18:42:58.871Z,99044
2017-06-29T18:45:26.164Z,99053
2017-06-29T18:47:53.718Z,99056
2017-06-29T18:50:21.010Z,99052
2017-06-29T18:52:48.310Z,99060
2017-06-29T18:55:15.612Z,99064
2017-06-29T18:57:42.902Z,99071
2017-06-29T19:00:10.977Z,99069
2017-06-29T19:02:38.267Z,99075
2017-06-29T19:05:05.615Z,99080
2017-06-29T19:07:32.911Z,99081
2017-06-29T19:10:00.594Z,99086
2017-06-29T19:12:27.746Z,99091
2017-06-29T19:14:55.202Z,99091
2017-06-29T19:17:22.513Z,99100
2017-06-29T19:19:49.794Z,99100
2017-06-29T19:22:17.188Z,99097
2017-06-29T19:24:44.475Z,99110
2017-06-29T19:27:12.109Z,99100
2017-06-29T19:29:39.637Z,99112
2017-06-29T19:32:06.936Z,99116
2017-06-29T19:34:34.227Z,99119
2017-06-29T19:37:01.669Z,99124
2017-06-29T19:39:29.376Z,99117
2017-06-29T19:41:56.664Z,99126
2017-06-29T19:44:23.970Z,99128
2017-06-29T19:46:51.700Z,99124
2017-06-29T19:49:19.126Z,99132
2017-06-29T19:51:46.411Z,99133
2017-06-29T19:54:14.056Z,99127
2017-06-29T19:56:41.360Z,99134
2017-06-29T19:59:08.665Z,99136
2017-06-29T20:01:36.181Z,99143
2017-06-29T20:04:03.639Z,99148
2017-06-29T20:06:31.096Z,99153
2017-06-29T20:08:58.388Z,99150
2017-06-29T20:11:26.008Z,99153
2017-06-29T20:13:53.333Z,99151
2017-06-29T20:16:20.618Z,99157
2017-06-29T20:18:47.922Z,99160
2017-06-29T20:21:15.208Z,99156
2017-06-29T20:23:42.610Z,99164
2017-06-29T20:26:09.909Z,99172
2017-06-29T20:28:37.595Z,99166
2017-06-29T20:31:04.988Z,99175
2017-06-29T20:36:11.918Z,99170
2017-06-29T20:38:39.218Z,99170
2017-06-29T20:41:06.513Z,99175
2017-06-29T20:43:34.270Z,99179
2017-06-29T20:46:01.551Z,99177
2017-06-29T20:48:29.206Z,99186
2017-06-29T20:50:56.508Z,99180
2017-06-29T20:53:24.118Z,99185
2017-06-29T20:55:51.417Z,99178
2017-06-29T20:58:19.031Z,99188
2017-06-29T21:00:46.417Z,99191
2017-06-29T21:03:13.946Z,99198
2017-06-29T21:05:41.244Z,99198
2017-06-29T21:08:08.546Z,99195
2017-06-29T21:10:35.854Z,99204
2017-06-29T21:13:03.393Z,99207
2017-06-29T21:15:30.980Z,99213
2017-06-29T21:17:58.285Z,99215
2017-06-29T21:20:25.581Z,99220
2017-06-29T21:22:52.901Z,99222
2017-06-29T21:25:20.221Z,99228
2017-06-29T21:27:47.547Z,99229
2017-06-29T21:30:14.842Z,99228
2017-06-29T21:32:42.122Z,99226
2017-06-29T21:35:09.422Z,99221
2017-06-29T21:37:36.562Z,99219
2017-06-29T21:40:03.865Z,99227
2017-06-29T21:42:31.148Z,99230
2017-06-29T21:44:58.428Z,99236
2017-06-29T21:47:26.018Z,99240
2017-06-29T21:49:53.411Z,99235
2017-06-29T21:52:20.701Z,99243
2017-06-29T21:54:47.993Z,99241
2017-06-29T21:57:16.115Z,99232
2017-06-29T21:59:43.849Z,99239
2017-06-29T22:02:11.145Z,99244
2017-06-29T22:04:38.430Z,99237
2017-06-29T22:07:05.732Z,99241
2017-06-29T22:09:33.045Z,99244
2017-06-29T22:12:00.896Z,99245
2017-06-29T22:14:28.208Z,99239
2017-06-29T22:16:55.505Z,99238
2017-06-29T22:19:22.809Z,99249
2017-06-29T22:21:50.108Z,99240
2017-06-29T22:24:17.390Z,99243
2017-06-29T22:26:44.689Z,99244
2017-06-29T22:29:12.420Z,99246
2017-06-29T22:31:39.719Z,99243
2017-06-29T22:34:07.402Z,99246
2017-06-29T22:36:34.690Z,99250
2017-06-29T22:39:01.989Z,99237
2017-06-29T22:41:29.284Z,99238
2017-06-29T22:43:56.586Z,99235
2017-06-29T22:46:24.381Z,99232
2017-06-29T22:48:51.677Z,99242
2017-06-29T22:51:18.977Z,99236
2017-06-29T22:53:46.280Z,99247
2017-06-29T22:56:13.834Z,99247
2017-06-29T22:58:41.136Z,99244
2017-06-29T23:01:08.741Z,99244
2017-06-29T23:03:36.030Z,99248
2017-06-29T23:06:03.423Z,99246
2017-06-29T23:08:30.815Z,99252
2017-06-29T23:10:58.273Z,99249
2017-06-29T23:13:25.784Z,99256
2017-06-29T23:15:53.277Z,99260
2017-06-29T23:18:20.643Z,99248
2017-06-29T23:20:48.167Z,99255
2017-06-29T23:23:15.467Z,99251
2017-06-29T23:25:42.765Z,99258
2017-06-29T23:28:10.164Z,99251
2017-06-29T23:30:37.441Z,99259
2017-06-29T23:33:04.742Z,99255
2017-06-29T23:35:32.294Z,99257
2017-06-29T23:37:59.605Z,99262
2017-06-29T23:40:26.894Z,99264
2017-06-29T23:42:54.198Z,99265
2017-06-29T23:45:21.747Z,99279
2017-06-29T23:47:49.047Z,99278
2017-06-29T23:50:16.420Z,99278
2017-06-29T23:52:43.717Z,99282
2017-06-29T23:55:11.028Z,99270
2017-06-29T23:57:38.310Z,99265
